sensor_id;sensor_type;location;lat;lon;timestamp;P1;durP1;ratioP1;P2;durP2;ratioP2
23169;SDS011;11753;43.144;24.714;2022-07-01T00:00:45;6.78;;;4.15;;
23169;SDS011;11753;43.144;24.714;2022-07-01T00:01:46;9.60;;;4.57;;
23169;SDS011;11753;43.144;24.714;2022-07-01T00:02:48;5.70;;;4.00;;
23169;SDS011;11753;43.144;24.714;2022-07-01T00:03:49;9.82;;;3.80;;
23169;SDS011;11753;43.144;24.714;2022-07-01T00:04:51;8.60;;;4.65;;
23169;SDS011;11753;43.144;24.714;2022-07-01T00:05:52;7.88;;;4.03;;
23169;SDS011;11753;43.144;24.714;2022-07-01T00:06:53;7.68;;;3.80;;
23169;SDS011;11753;43.144;24.714;2022-07-01T00:07:55;7.65;;;4.18;;
23169;SDS011;11753;43.144;24.714;2022-07-01T00:08:56;8.85;;;4.47;;
23169;SDS011;11753;43.144;24.714;2022-07-01T00:09:57;6.65;;;4.40;;
23169;SDS011;11753;43.144;24.714;2022-07-01T00:10:58;9.63;;;4.75;;
23169;SDS011;11753;43.144;24.714;2022-07-01T00:11:59;6.22;;;4.10;;
23169;SDS011;11753;43.144;24.714;2022-07-01T00:13:00;9.50;;;4.78;;
23169;SDS011;11753;43.144;24.714;2022-07-01T00:14:01;7.35;;;4.05;;
23169;SDS011;11753;43.144;24.714;2022-07-01T00:15:02;7.03;;;4.40;;
23169;SDS011;11753;43.144;24.714;2022-07-01T00:16:04;8.70;;;4.47;;
23169;SDS011;11753;43.144;24.714;2022-07-01T00:17:05;8.73;;;4.63;;
23169;SDS011;11753;43.144;24.714;2022-07-01T00:18:06;6.53;;;4.15;;
23169;SDS011;11753;43.144;24.714;2022-07-01T00:19:07;6.32;;;4.05;;
23169;SDS011;11753;43.144;24.714;2022-07-01T00:20:08;7.22;;;4.18;;
23169;SDS011;11753;43.144;24.714;2022-07-01T00:21:10;5.78;;;4.30;;
23169;SDS011;11753;43.144;24.714;2022-07-01T00:22:12;6.38;;;4.03;;
23169;SDS011;11753;43.144;24.714;2022-07-01T00:23:13;7.18;;;4.30;;
23169;SDS011;11753;43.144;24.714;2022-07-01T00:24:14;7.13;;;4.50;;
23169;SDS011;11753;43.144;24.714;2022-07-01T00:25:15;6.75;;;4.20;;
23169;SDS011;11753;43.144;24.714;2022-07-01T00:26:16;8.20;;;4.85;;
23169;SDS011;11753;43.144;24.714;2022-07-01T00:27:17;6.60;;;4.40;;
23169;SDS011;11753;43.144;24.714;2022-07-01T00:28:18;8.57;;;4.10;;
23169;SDS011;11753;43.144;24.714;2022-07-01T00:29:20;8.55;;;4.47;;
23169;SDS011;11753;43.144;24.714;2022-07-01T00:30:21;7.93;;;4.18;;
23169;SDS011;11753;43.144;24.714;2022-07-01T00:31:22;6.57;;;4.18;;
23169;SDS011;11753;43.144;24.714;2022-07-01T00:32:23;7.10;;;4.18;;
23169;SDS011;11753;43.144;24.714;2022-07-01T00:33:24;7.03;;;4.45;;
23169;SDS011;11753;43.144;24.714;2022-07-01T00:34:26;8.90;;;4.13;;
23169;SDS011;11753;43.144;24.714;2022-07-01T00:35:27;6.78;;;4.30;;
23169;SDS011;11753;43.144;24.714;2022-07-01T00:36:28;8.27;;;4.28;;
23169;SDS011;11753;43.144;24.714;2022-07-01T00:37:29;6.55;;;4.47;;
23169;SDS011;11753;43.144;24.714;2022-07-01T00:38:30;7.95;;;4.18;;
23169;SDS011;11753;43.144;24.714;2022-07-01T00:39:31;7.90;;;4.35;;
23169;SDS011;11753;43.144;24.714;2022-07-01T00:40:34;10.93;;;4.53;;
23169;SDS011;11753;43.144;24.714;2022-07-01T00:41:35;7.97;;;4.50;;
23169;SDS011;11753;43.144;24.714;2022-07-01T00:42:39;7.00;;;4.35;;
23169;SDS011;11753;43.144;24.714;2022-07-01T00:43:41;8.10;;;4.70;;
23169;SDS011;11753;43.144;24.714;2022-07-01T00:44:42;14.15;;;4.93;;
23169;SDS011;11753;43.144;24.714;2022-07-01T00:45:44;8.02;;;4.68;;
23169;SDS011;11753;43.144;24.714;2022-07-01T00:46:49;10.13;;;4.88;;
23169;SDS011;11753;43.144;24.714;2022-07-01T00:47:51;12.52;;;5.10;;
23169;SDS011;11753;43.144;24.714;2022-07-01T00:48:54;9.80;;;5.00;;
23169;SDS011;11753;43.144;24.714;2022-07-01T00:49:57;6.63;;;4.85;;
23169;SDS011;11753;43.144;24.714;2022-07-01T00:50:58;6.70;;;4.13;;
23169;SDS011;11753;43.144;24.714;2022-07-01T00:51:59;9.15;;;4.75;;
23169;SDS011;11753;43.144;24.714;2022-07-01T00:53:00;7.03;;;4.70;;
23169;SDS011;11753;43.144;24.714;2022-07-01T00:54:01;8.55;;;4.75;;
23169;SDS011;11753;43.144;24.714;2022-07-01T00:55:03;8.65;;;5.07;;
23169;SDS011;11753;43.144;24.714;2022-07-01T00:56:05;8.15;;;4.85;;
23169;SDS011;11753;43.144;24.714;2022-07-01T00:57:08;8.65;;;5.10;;
23169;SDS011;11753;43.144;24.714;2022-07-01T00:58:10;8.25;;;4.78;;
23169;SDS011;11753;43.144;24.714;2022-07-01T00:59:11;6.68;;;4.47;;
23169;SDS011;11753;43.144;24.714;2022-07-01T01:00:13;8.38;;;4.82;;
23169;SDS011;11753;43.144;24.714;2022-07-01T01:01:17;10.48;;;5.13;;
23169;SDS011;11753;43.144;24.714;2022-07-01T01:02:19;9.70;;;5.00;;
23169;SDS011;11753;43.144;24.714;2022-07-01T01:03:20;8.18;;;4.90;;
23169;SDS011;11753;43.144;24.714;2022-07-01T01:04:21;7.40;;;4.78;;
23169;SDS011;11753;43.144;24.714;2022-07-01T01:05:22;8.70;;;4.72;;
23169;SDS011;11753;43.144;24.714;2022-07-01T01:06:23;7.43;;;4.70;;
23169;SDS011;11753;43.144;24.714;2022-07-01T01:07:24;7.05;;;4.50;;
23169;SDS011;11753;43.144;24.714;2022-07-01T01:08:26;8.93;;;4.63;;
23169;SDS011;11753;43.144;24.714;2022-07-01T01:09:27;8.93;;;4.85;;
23169;SDS011;11753;43.144;24.714;2022-07-01T01:10:30;8.35;;;4.72;;
23169;SDS011;11753;43.144;24.714;2022-07-01T01:11:31;8.25;;;4.70;;
23169;SDS011;11753;43.144;24.714;2022-07-01T01:12:32;8.18;;;5.05;;
23169;SDS011;11753;43.144;24.714;2022-07-01T01:13:34;7.95;;;5.03;;
23169;SDS011;11753;43.144;24.714;2022-07-01T01:14:48;7.07;;;5.13;;
23169;SDS011;11753;43.144;24.714;2022-07-01T01:15:50;12.88;;;4.63;;
23169;SDS011;11753;43.144;24.714;2022-07-01T01:16:51;10.02;;;4.90;;
23169;SDS011;11753;43.144;24.714;2022-07-01T01:17:52;9.85;;;4.78;;
23169;SDS011;11753;43.144;24.714;2022-07-01T01:18:53;8.40;;;5.25;;
23169;SDS011;11753;43.144;24.714;2022-07-01T01:19:57;8.82;;;4.50;;
23169;SDS011;11753;43.144;24.714;2022-07-01T01:20:58;6.63;;;4.70;;
23169;SDS011;11753;43.144;24.714;2022-07-01T01:21:59;10.57;;;5.55;;
23169;SDS011;11753;43.144;24.714;2022-07-01T01:23:00;8.40;;;4.97;;
23169;SDS011;11753;43.144;24.714;2022-07-01T01:24:02;7.30;;;4.88;;
23169;SDS011;11753;43.144;24.714;2022-07-01T01:25:03;12.65;;;5.18;;
23169;SDS011;11753;43.144;24.714;2022-07-01T01:26:14;9.77;;;5.20;;
23169;SDS011;11753;43.144;24.714;2022-07-01T01:27:16;9.70;;;5.20;;
23169;SDS011;11753;43.144;24.714;2022-07-01T01:28:17;9.55;;;5.50;;
23169;SDS011;11753;43.144;24.714;2022-07-01T01:29:18;11.90;;;5.47;;
23169;SDS011;11753;43.144;24.714;2022-07-01T01:30:19;7.35;;;4.40;;
23169;SDS011;11753;43.144;24.714;2022-07-01T01:31:30;8.60;;;5.10;;
23169;SDS011;11753;43.144;24.714;2022-07-01T01:32:36;10.32;;;4.95;;
23169;SDS011;11753;43.144;24.714;2022-07-01T01:33:45;9.63;;;5.20;;
23169;SDS011;11753;43.144;24.714;2022-07-01T01:34:46;11.77;;;5.22;;
23169;SDS011;11753;43.144;24.714;2022-07-01T01:35:47;8.35;;;4.80;;
23169;SDS011;11753;43.144;24.714;2022-07-01T01:36:48;9.93;;;5.43;;
23169;SDS011;11753;43.144;24.714;2022-07-01T01:37:49;8.90;;;4.60;;
23169;SDS011;11753;43.144;24.714;2022-07-01T01:38:50;7.72;;;4.32;;
23169;SDS011;11753;43.144;24.714;2022-07-01T01:39:51;11.77;;;4.85;;
23169;SDS011;11753;43.144;24.714;2022-07-01T01:40:52;12.35;;;5.45;;
23169;SDS011;11753;43.144;24.714;2022-07-01T01:41:53;8.85;;;4.85;;
23169;SDS011;11753;43.144;24.714;2022-07-01T01:42:54;6.93;;;5.03;;
23169;SDS011;11753;43.144;24.714;2022-07-01T01:43:55;9.50;;;4.93;;
23169;SDS011;11753;43.144;24.714;2022-07-01T01:44:56;10.05;;;4.93;;
23169;SDS011;11753;43.144;24.714;2022-07-01T01:45:57;10.73;;;4.88;;
23169;SDS011;11753;43.144;24.714;2022-07-01T01:47:00;10.48;;;5.43;;
23169;SDS011;11753;43.144;24.714;2022-07-01T01:48:01;9.63;;;4.70;;
23169;SDS011;11753;43.144;24.714;2022-07-01T01:49:03;8.45;;;5.45;;
23169;SDS011;11753;43.144;24.714;2022-07-01T01:50:05;10.95;;;5.15;;
23169;SDS011;11753;43.144;24.714;2022-07-01T01:51:08;9.30;;;5.53;;
23169;SDS011;11753;43.144;24.714;2022-07-01T01:52:11;9.75;;;5.07;;
23169;SDS011;11753;43.144;24.714;2022-07-01T01:53:12;9.02;;;5.13;;
23169;SDS011;11753;43.144;24.714;2022-07-01T01:54:13;8.27;;;5.10;;
23169;SDS011;11753;43.144;24.714;2022-07-01T01:55:14;8.45;;;5.28;;
23169;SDS011;11753;43.144;24.714;2022-07-01T01:56:15;9.32;;;4.78;;
23169;SDS011;11753;43.144;24.714;2022-07-01T01:57:16;10.35;;;4.85;;
23169;SDS011;11753;43.144;24.714;2022-07-01T01:58:17;8.20;;;5.45;;
23169;SDS011;11753;43.144;24.714;2022-07-01T01:59:18;8.68;;;5.00;;
23169;SDS011;11753;43.144;24.714;2022-07-01T02:00:19;7.75;;;5.20;;
23169;SDS011;11753;43.144;24.714;2022-07-01T02:01:20;8.30;;;4.80;;
23169;SDS011;11753;43.144;24.714;2022-07-01T02:02:22;11.43;;;5.07;;
23169;SDS011;11753;43.144;24.714;2022-07-01T02:03:23;10.27;;;5.75;;
23169;SDS011;11753;43.144;24.714;2022-07-01T02:04:24;7.28;;;4.65;;
23169;SDS011;11753;43.144;24.714;2022-07-01T02:05:25;7.82;;;5.05;;
23169;SDS011;11753;43.144;24.714;2022-07-01T02:06:26;10.43;;;4.78;;
23169;SDS011;11753;43.144;24.714;2022-07-01T02:07:27;9.93;;;5.30;;
23169;SDS011;11753;43.144;24.714;2022-07-01T02:08:28;10.73;;;5.72;;
23169;SDS011;11753;43.144;24.714;2022-07-01T02:09:29;8.20;;;4.53;;
23169;SDS011;11753;43.144;24.714;2022-07-01T02:10:30;10.88;;;5.00;;
23169;SDS011;11753;43.144;24.714;2022-07-01T02:11:31;8.85;;;4.88;;
23169;SDS011;11753;43.144;24.714;2022-07-01T02:12:32;11.50;;;5.30;;
23169;SDS011;11753;43.144;24.714;2022-07-01T02:13:33;8.85;;;4.85;;
23169;SDS011;11753;43.144;24.714;2022-07-01T02:14:35;7.93;;;5.03;;
23169;SDS011;11753;43.144;24.714;2022-07-01T02:15:36;8.05;;;4.55;;
23169;SDS011;11753;43.144;24.714;2022-07-01T02:16:37;10.70;;;4.97;;
23169;SDS011;11753;43.144;24.714;2022-07-01T02:17:38;10.48;;;5.03;;
23169;SDS011;11753;43.144;24.714;2022-07-01T02:18:39;7.20;;;4.57;;
23169;SDS011;11753;43.144;24.714;2022-07-01T02:19:39;9.40;;;4.40;;
23169;SDS011;11753;43.144;24.714;2022-07-01T02:20:40;9.65;;;4.90;;
23169;SDS011;11753;43.144;24.714;2022-07-01T02:21:41;9.20;;;4.80;;
23169;SDS011;11753;43.144;24.714;2022-07-01T02:22:42;10.75;;;4.75;;
23169;SDS011;11753;43.144;24.714;2022-07-01T02:23:42;9.85;;;4.75;;
23169;SDS011;11753;43.144;24.714;2022-07-01T02:24:43;7.85;;;4.82;;
23169;SDS011;11753;43.144;24.714;2022-07-01T02:29:39;11.45;;;5.20;;
23169;SDS011;11753;43.144;24.714;2022-07-01T02:30:42;8.45;;;5.03;;
23169;SDS011;11753;43.144;24.714;2022-07-01T02:31:42;7.72;;;4.82;;
23169;SDS011;11753;43.144;24.714;2022-07-01T02:32:44;8.85;;;5.05;;
23169;SDS011;11753;43.144;24.714;2022-07-01T02:33:44;8.85;;;4.75;;
23169;SDS011;11753;43.144;24.714;2022-07-01T02:34:45;8.02;;;4.93;;
23169;SDS011;11753;43.144;24.714;2022-07-01T02:35:46;8.27;;;4.70;;
23169;SDS011;11753;43.144;24.714;2022-07-01T02:36:47;9.23;;;5.25;;
23169;SDS011;11753;43.144;24.714;2022-07-01T02:37:49;8.30;;;5.28;;
23169;SDS011;11753;43.144;24.714;2022-07-01T02:38:50;7.22;;;5.00;;
23169;SDS011;11753;43.144;24.714;2022-07-01T02:39:51;8.77;;;4.95;;
23169;SDS011;11753;43.144;24.714;2022-07-01T02:40:52;10.90;;;5.22;;
23169;SDS011;11753;43.144;24.714;2022-07-01T02:41:55;8.50;;;4.57;;
23169;SDS011;11753;43.144;24.714;2022-07-01T02:43:14;8.85;;;4.68;;
23169;SDS011;11753;43.144;24.714;2022-07-01T02:44:16;7.25;;;5.00;;
23169;SDS011;11753;43.144;24.714;2022-07-01T02:45:16;8.65;;;5.55;;
23169;SDS011;11753;43.144;24.714;2022-07-01T02:46:17;9.25;;;5.00;;
23169;SDS011;11753;43.144;24.714;2022-07-01T02:47:18;7.88;;;5.25;;
23169;SDS011;11753;43.144;24.714;2022-07-01T02:48:18;11.10;;;5.60;;
23169;SDS011;11753;43.144;24.714;2022-07-01T02:49:19;9.98;;;5.10;;
23169;SDS011;11753;43.144;24.714;2022-07-01T02:50:19;9.80;;;5.07;;
23169;SDS011;11753;43.144;24.714;2022-07-01T02:51:20;12.68;;;5.45;;
23169;SDS011;11753;43.144;24.714;2022-07-01T02:52:21;10.13;;;5.45;;
23169;SDS011;11753;43.144;24.714;2022-07-01T02:53:22;8.75;;;4.97;;
23169;SDS011;11753;43.144;24.714;2022-07-01T02:54:23;9.15;;;5.32;;
23169;SDS011;11753;43.144;24.714;2022-07-01T02:55:24;9.80;;;5.45;;
23169;SDS011;11753;43.144;24.714;2022-07-01T02:56:25;8.02;;;5.25;;
23169;SDS011;11753;43.144;24.714;2022-07-01T02:57:26;8.93;;;4.65;;
23169;SDS011;11753;43.144;24.714;2022-07-01T02:58:27;7.68;;;4.85;;
23169;SDS011;11753;43.144;24.714;2022-07-01T02:59:28;10.48;;;4.90;;
23169;SDS011;11753;43.144;24.714;2022-07-01T03:00:29;11.45;;;5.60;;
23169;SDS011;11753;43.144;24.714;2022-07-01T03:01:31;8.40;;;5.38;;
23169;SDS011;11753;43.144;24.714;2022-07-01T03:02:32;9.40;;;4.78;;
23169;SDS011;11753;43.144;24.714;2022-07-01T03:03:33;10.73;;;5.20;;
23169;SDS011;11753;43.144;24.714;2022-07-01T03:04:34;9.13;;;4.90;;
23169;SDS011;11753;43.144;24.714;2022-07-01T03:05:35;10.00;;;5.15;;
23169;SDS011;11753;43.144;24.714;2022-07-01T03:06:37;7.97;;;4.88;;
23169;SDS011;11753;43.144;24.714;2022-07-01T03:07:38;6.75;;;4.60;;
23169;SDS011;11753;43.144;24.714;2022-07-01T03:08:40;13.45;;;5.80;;
23169;SDS011;11753;43.144;24.714;2022-07-01T03:09:41;8.45;;;5.00;;
23169;SDS011;11753;43.144;24.714;2022-07-01T03:10:43;10.10;;;4.82;;
23169;SDS011;11753;43.144;24.714;2022-07-01T03:11:44;13.63;;;5.75;;
23169;SDS011;11753;43.144;24.714;2022-07-01T03:12:45;7.22;;;5.30;;
23169;SDS011;11753;43.144;24.714;2022-07-01T03:13:46;9.35;;;4.82;;
23169;SDS011;11753;43.144;24.714;2022-07-01T03:14:47;9.65;;;5.28;;
23169;SDS011;11753;43.144;24.714;2022-07-01T03:15:48;8.77;;;5.10;;
23169;SDS011;11753;43.144;24.714;2022-07-01T03:16:49;7.88;;;5.18;;
23169;SDS011;11753;43.144;24.714;2022-07-01T03:17:50;10.27;;;5.10;;
23169;SDS011;11753;43.144;24.714;2022-07-01T03:18:50;8.82;;;4.88;;
23169;SDS011;11753;43.144;24.714;2022-07-01T03:19:51;10.32;;;4.68;;
23169;SDS011;11753;43.144;24.714;2022-07-01T03:20:53;11.52;;;5.57;;
23169;SDS011;11753;43.144;24.714;2022-07-01T03:21:53;9.23;;;5.13;;
23169;SDS011;11753;43.144;24.714;2022-07-01T03:22:54;9.00;;;5.65;;
23169;SDS011;11753;43.144;24.714;2022-07-01T03:23:55;7.78;;;4.85;;
23169;SDS011;11753;43.144;24.714;2022-07-01T03:24:56;9.63;;;5.07;;
23169;SDS011;11753;43.144;24.714;2022-07-01T03:25:57;8.73;;;4.97;;
23169;SDS011;11753;43.144;24.714;2022-07-01T03:26:58;9.95;;;5.32;;
23169;SDS011;11753;43.144;24.714;2022-07-01T03:27:59;9.80;;;5.25;;
23169;SDS011;11753;43.144;24.714;2022-07-01T03:29:03;7.85;;;5.18;;
23169;SDS011;11753;43.144;24.714;2022-07-01T03:30:04;9.55;;;5.50;;
23169;SDS011;11753;43.144;24.714;2022-07-01T03:31:06;11.02;;;5.18;;
23169;SDS011;11753;43.144;24.714;2022-07-01T03:32:07;10.43;;;5.13;;
23169;SDS011;11753;43.144;24.714;2022-07-01T03:33:12;8.68;;;5.45;;
23169;SDS011;11753;43.144;24.714;2022-07-01T03:34:13;13.27;;;5.82;;
23169;SDS011;11753;43.144;24.714;2022-07-01T03:35:14;11.43;;;5.40;;
23169;SDS011;11753;43.144;24.714;2022-07-01T03:36:33;7.82;;;5.28;;
23169;SDS011;11753;43.144;24.714;2022-07-01T03:37:37;10.93;;;5.35;;
23169;SDS011;11753;43.144;24.714;2022-07-01T03:38:38;10.23;;;5.50;;
23169;SDS011;11753;43.144;24.714;2022-07-01T03:39:39;8.35;;;5.32;;
23169;SDS011;11753;43.144;24.714;2022-07-01T03:40:40;7.00;;;5.28;;
23169;SDS011;11753;43.144;24.714;2022-07-01T03:41:41;10.73;;;5.47;;
23169;SDS011;11753;43.144;24.714;2022-07-01T03:42:41;11.35;;;5.70;;
23169;SDS011;11753;43.144;24.714;2022-07-01T03:43:42;11.38;;;5.10;;
23169;SDS011;11753;43.144;24.714;2022-07-01T03:44:43;8.45;;;5.65;;
23169;SDS011;11753;43.144;24.714;2022-07-01T03:45:47;11.02;;;5.55;;
23169;SDS011;11753;43.144;24.714;2022-07-01T03:46:48;8.98;;;5.22;;
23169;SDS011;11753;43.144;24.714;2022-07-01T03:47:50;12.02;;;5.50;;
23169;SDS011;11753;43.144;24.714;2022-07-01T03:48:51;9.32;;;5.55;;
23169;SDS011;11753;43.144;24.714;2022-07-01T03:49:52;11.25;;;5.43;;
23169;SDS011;11753;43.144;24.714;2022-07-01T03:50:52;8.82;;;5.07;;
23169;SDS011;11753;43.144;24.714;2022-07-01T03:51:53;12.00;;;5.60;;
23169;SDS011;11753;43.144;24.714;2022-07-01T03:52:54;10.05;;;5.35;;
23169;SDS011;11753;43.144;24.714;2022-07-01T03:54:14;10.70;;;5.50;;
23169;SDS011;11753;43.144;24.714;2022-07-01T03:55:30;10.60;;;5.43;;
23169;SDS011;11753;43.144;24.714;2022-07-01T03:56:31;9.20;;;6.10;;
23169;SDS011;11753;43.144;24.714;2022-07-01T03:57:32;9.15;;;5.55;;
23169;SDS011;11753;43.144;24.714;2022-07-01T03:58:33;13.75;;;5.60;;
23169;SDS011;11753;43.144;24.714;2022-07-01T03:59:39;11.38;;;5.40;;
23169;SDS011;11753;43.144;24.714;2022-07-01T04:00:40;11.02;;;5.30;;
23169;SDS011;11753;43.144;24.714;2022-07-01T04:01:42;9.80;;;5.50;;
23169;SDS011;11753;43.144;24.714;2022-07-01T04:02:43;10.80;;;6.20;;
23169;SDS011;11753;43.144;24.714;2022-07-01T04:03:44;9.98;;;5.53;;
23169;SDS011;11753;43.144;24.714;2022-07-01T04:04:45;7.07;;;5.18;;
23169;SDS011;11753;43.144;24.714;2022-07-01T04:05:45;11.68;;;5.53;;
23169;SDS011;11753;43.144;24.714;2022-07-01T04:06:46;11.45;;;5.80;;
23169;SDS011;11753;43.144;24.714;2022-07-01T04:07:48;7.82;;;5.63;;
23169;SDS011;11753;43.144;24.714;2022-07-01T04:08:49;11.65;;;5.55;;
23169;SDS011;11753;43.144;24.714;2022-07-01T04:09:51;11.43;;;5.97;;
23169;SDS011;11753;43.144;24.714;2022-07-01T04:10:52;11.35;;;6.07;;
23169;SDS011;11753;43.144;24.714;2022-07-01T04:11:55;7.97;;;5.65;;
23169;SDS011;11753;43.144;24.714;2022-07-01T04:12:56;8.60;;;6.45;;
23169;SDS011;11753;43.144;24.714;2022-07-01T04:13:57;14.77;;;5.82;;
23169;SDS011;11753;43.144;24.714;2022-07-01T04:14:58;11.82;;;5.90;;
23169;SDS011;11753;43.144;24.714;2022-07-01T04:15:59;8.60;;;5.38;;
23169;SDS011;11753;43.144;24.714;2022-07-01T04:17:00;15.25;;;5.88;;
23169;SDS011;11753;43.144;24.714;2022-07-01T04:18:02;8.65;;;5.47;;
23169;SDS011;11753;43.144;24.714;2022-07-01T04:19:03;9.80;;;5.60;;
23169;SDS011;11753;43.144;24.714;2022-07-01T04:20:05;7.57;;;5.88;;
23169;SDS011;11753;43.144;24.714;2022-07-01T04:21:06;10.15;;;5.53;;
23169;SDS011;11753;43.144;24.714;2022-07-01T04:22:25;13.65;;;6.05;;
23169;SDS011;11753;43.144;24.714;2022-07-01T04:23:38;12.20;;;6.18;;
23169;SDS011;11753;43.144;24.714;2022-07-01T04:24:39;8.98;;;5.53;;
23169;SDS011;11753;43.144;24.714;2022-07-01T04:25:40;8.32;;;5.40;;
23169;SDS011;11753;43.144;24.714;2022-07-01T04:26:42;10.23;;;5.18;;
23169;SDS011;11753;43.144;24.714;2022-07-01T04:27:46;8.38;;;6.32;;
23169;SDS011;11753;43.144;24.714;2022-07-01T04:28:47;12.13;;;5.85;;
23169;SDS011;11753;43.144;24.714;2022-07-01T04:29:48;10.93;;;5.43;;
23169;SDS011;11753;43.144;24.714;2022-07-01T04:30:49;10.73;;;4.97;;
23169;SDS011;11753;43.144;24.714;2022-07-01T04:31:53;9.27;;;5.40;;
23169;SDS011;11753;43.144;24.714;2022-07-01T04:32:54;9.55;;;5.30;;
23169;SDS011;11753;43.144;24.714;2022-07-01T04:33:55;11.43;;;5.57;;
23169;SDS011;11753;43.144;24.714;2022-07-01T04:34:56;11.18;;;5.40;;
23169;SDS011;11753;43.144;24.714;2022-07-01T04:35:58;13.63;;;5.53;;
23169;SDS011;11753;43.144;24.714;2022-07-01T04:36:59;10.45;;;6.05;;
23169;SDS011;11753;43.144;24.714;2022-07-01T04:38:00;10.55;;;5.40;;
23169;SDS011;11753;43.144;24.714;2022-07-01T04:39:02;8.43;;;5.30;;
23169;SDS011;11753;43.144;24.714;2022-07-01T04:40:04;12.93;;;5.40;;
23169;SDS011;11753;43.144;24.714;2022-07-01T04:41:05;12.73;;;5.20;;
23169;SDS011;11753;43.144;24.714;2022-07-01T04:42:24;10.38;;;5.20;;
23169;SDS011;11753;43.144;24.714;2022-07-01T04:43:25;11.43;;;5.30;;
23169;SDS011;11753;43.144;24.714;2022-07-01T04:44:30;10.57;;;4.50;;
23169;SDS011;11753;43.144;24.714;2022-07-01T04:45:32;12.07;;;5.93;;
23169;SDS011;11753;43.144;24.714;2022-07-01T04:46:33;12.18;;;5.35;;
23169;SDS011;11753;43.144;24.714;2022-07-01T04:47:33;11.98;;;5.75;;
23169;SDS011;11753;43.144;24.714;2022-07-01T04:48:34;12.02;;;6.35;;
23169;SDS011;11753;43.144;24.714;2022-07-01T04:49:35;9.63;;;6.07;;
23169;SDS011;11753;43.144;24.714;2022-07-01T04:50:37;11.05;;;5.80;;
23169;SDS011;11753;43.144;24.714;2022-07-01T04:51:38;10.77;;;6.47;;
23169;SDS011;11753;43.144;24.714;2022-07-01T04:52:39;10.52;;;6.53;;
23169;SDS011;11753;43.144;24.714;2022-07-01T04:53:40;9.80;;;5.35;;
23169;SDS011;11753;43.144;24.714;2022-07-01T04:54:41;9.73;;;5.47;;
23169;SDS011;11753;43.144;24.714;2022-07-01T04:55:41;9.77;;;5.43;;
23169;SDS011;11753;43.144;24.714;2022-07-01T04:56:42;11.00;;;5.95;;
23169;SDS011;11753;43.144;24.714;2022-07-01T04:57:44;9.50;;;5.97;;
23169;SDS011;11753;43.144;24.714;2022-07-01T04:58:44;7.90;;;5.43;;
23169;SDS011;11753;43.144;24.714;2022-07-01T04:59:45;7.32;;;5.53;;
23169;SDS011;11753;43.144;24.714;2022-07-01T05:00:46;12.43;;;6.22;;
23169;SDS011;11753;43.144;24.714;2022-07-01T05:01:49;12.02;;;6.30;;
23169;SDS011;11753;43.144;24.714;2022-07-01T05:02:50;10.80;;;6.18;;
23169;SDS011;11753;43.144;24.714;2022-07-01T05:03:51;9.32;;;5.97;;
23169;SDS011;11753;43.144;24.714;2022-07-01T05:04:52;9.35;;;6.00;;
23169;SDS011;11753;43.144;24.714;2022-07-01T05:05:54;10.18;;;5.90;;
23169;SDS011;11753;43.144;24.714;2022-07-01T05:06:55;8.68;;;5.40;;
23169;SDS011;11753;43.144;24.714;2022-07-01T05:07:55;9.75;;;5.93;;
23169;SDS011;11753;43.144;24.714;2022-07-01T05:08:56;8.93;;;5.72;;
23169;SDS011;11753;43.144;24.714;2022-07-01T05:09:57;9.98;;;5.93;;
23169;SDS011;11753;43.144;24.714;2022-07-01T05:10:59;9.18;;;5.80;;
23169;SDS011;11753;43.144;24.714;2022-07-01T05:12:00;8.95;;;6.07;;
23169;SDS011;11753;43.144;24.714;2022-07-01T05:13:01;8.98;;;5.90;;
23169;SDS011;11753;43.144;24.714;2022-07-01T05:14:03;7.80;;;5.38;;
23169;SDS011;11753;43.144;24.714;2022-07-01T05:15:04;12.40;;;5.93;;
23169;SDS011;11753;43.144;24.714;2022-07-01T05:16:09;7.88;;;5.88;;
23169;SDS011;11753;43.144;24.714;2022-07-01T05:17:10;10.70;;;6.05;;
23169;SDS011;11753;43.144;24.714;2022-07-01T05:18:11;12.88;;;5.63;;
23169;SDS011;11753;43.144;24.714;2022-07-01T05:19:41;9.77;;;5.72;;
23169;SDS011;11753;43.144;24.714;2022-07-01T05:21:00;12.55;;;5.68;;
23169;SDS011;11753;43.144;24.714;2022-07-01T05:22:20;7.95;;;5.47;;
23169;SDS011;11753;43.144;24.714;2022-07-01T05:23:23;8.68;;;5.90;;
23169;SDS011;11753;43.144;24.714;2022-07-01T05:24:28;10.05;;;5.95;;
23169;SDS011;11753;43.144;24.714;2022-07-01T05:25:31;13.55;;;5.32;;
23169;SDS011;11753;43.144;24.714;2022-07-01T05:26:32;9.93;;;6.15;;
23169;SDS011;11753;43.144;24.714;2022-07-01T05:27:33;12.45;;;6.28;;
23169;SDS011;11753;43.144;24.714;2022-07-01T05:28:35;11.75;;;6.28;;
23169;SDS011;11753;43.144;24.714;2022-07-01T05:29:36;9.05;;;5.55;;
23169;SDS011;11753;43.144;24.714;2022-07-01T05:30:37;9.27;;;5.90;;
23169;SDS011;11753;43.144;24.714;2022-07-01T05:31:41;10.23;;;5.95;;
23169;SDS011;11753;43.144;24.714;2022-07-01T05:32:42;8.73;;;5.20;;
23169;SDS011;11753;43.144;24.714;2022-07-01T05:33:46;9.45;;;5.47;;
23169;SDS011;11753;43.144;24.714;2022-07-01T05:34:47;14.02;;;5.72;;
23169;SDS011;11753;43.144;24.714;2022-07-01T05:35:48;8.68;;;5.63;;
23169;SDS011;11753;43.144;24.714;2022-07-01T05:36:49;10.52;;;5.93;;
23169;SDS011;11753;43.144;24.714;2022-07-01T05:37:51;10.80;;;5.50;;
23169;SDS011;11753;43.144;24.714;2022-07-01T05:38:52;8.30;;;5.28;;
23169;SDS011;11753;43.144;24.714;2022-07-01T05:39:53;8.93;;;5.80;;
23169;SDS011;11753;43.144;24.714;2022-07-01T05:40:54;10.57;;;5.45;;
23169;SDS011;11753;43.144;24.714;2022-07-01T05:41:55;8.93;;;5.38;;
23169;SDS011;11753;43.144;24.714;2022-07-01T05:42:56;8.70;;;5.22;;
23169;SDS011;11753;43.144;24.714;2022-07-01T05:43:57;13.38;;;5.35;;
23169;SDS011;11753;43.144;24.714;2022-07-01T05:44:58;9.32;;;5.32;;
23169;SDS011;11753;43.144;24.714;2022-07-01T05:45:59;7.35;;;5.07;;
23169;SDS011;11753;43.144;24.714;2022-07-01T05:47:00;10.77;;;5.15;;
23169;SDS011;11753;43.144;24.714;2022-07-01T05:48:01;7.40;;;5.07;;
23169;SDS011;11753;43.144;24.714;2022-07-01T05:49:02;10.57;;;6.35;;
23169;SDS011;11753;43.144;24.714;2022-07-01T05:50:03;8.32;;;5.18;;
23169;SDS011;11753;43.144;24.714;2022-07-01T05:51:04;9.48;;;5.40;;
23169;SDS011;11753;43.144;24.714;2022-07-01T05:52:05;12.68;;;5.40;;
23169;SDS011;11753;43.144;24.714;2022-07-01T05:53:06;15.07;;;6.03;;
23169;SDS011;11753;43.144;24.714;2022-07-01T05:54:07;9.13;;;4.90;;
23169;SDS011;11753;43.144;24.714;2022-07-01T05:55:08;6.55;;;5.30;;
23169;SDS011;11753;43.144;24.714;2022-07-01T05:56:09;11.02;;;5.30;;
23169;SDS011;11753;43.144;24.714;2022-07-01T05:57:10;7.15;;;5.10;;
23169;SDS011;11753;43.144;24.714;2022-07-01T05:58:11;10.23;;;5.47;;
23169;SDS011;11753;43.144;24.714;2022-07-01T05:59:12;7.03;;;5.05;;
23169;SDS011;11753;43.144;24.714;2022-07-01T06:00:14;11.15;;;5.60;;
23169;SDS011;11753;43.144;24.714;2022-07-01T06:01:16;8.40;;;4.60;;
23169;SDS011;11753;43.144;24.714;2022-07-01T06:02:18;7.28;;;4.63;;
23169;SDS011;11753;43.144;24.714;2022-07-01T06:03:20;6.72;;;4.60;;
23169;SDS011;11753;43.144;24.714;2022-07-01T06:04:21;8.02;;;5.00;;
23169;SDS011;11753;43.144;24.714;2022-07-01T06:05:22;8.70;;;4.88;;
23169;SDS011;11753;43.144;24.714;2022-07-01T06:06:23;7.43;;;4.65;;
23169;SDS011;11753;43.144;24.714;2022-07-01T06:07:24;8.63;;;5.38;;
23169;SDS011;11753;43.144;24.714;2022-07-01T06:08:25;9.68;;;5.43;;
23169;SDS011;11753;43.144;24.714;2022-07-01T06:09:26;9.27;;;4.75;;
23169;SDS011;11753;43.144;24.714;2022-07-01T06:10:27;9.32;;;5.03;;